Time;durP1;ratioP1;P1;durP2;ratioP2;P2;SDS_P1;SDS_P2;PMS_P1;PMS_P2;Temp;Humidity;BMP_temperature;BMP_pressure;BME280_temperature;BME280_humidity;BME280_pressure;Samples;Min_cycle;Max_cycle;Signal;HPM_P1;HPM_P2
2024/01/05 00:01:17;;;;;;;9.25;8.18;;;;;;;18.95;44.93;100600.72;5036804;28;20045;-57
2024/01/05 00:03:45;;;;;;;8.38;7.43;;;;;;;18.95;45.17;100606.94;5022223;28;20038;-57
2024/01/05 00:06:12;;;;;;;8.13;6.95;;;;;;;18.95;45.37;100612.31;5029420;28;20060;-58
2024/01/05 00:08:40;;;;;;;9.52;7.18;;;;;;;18.95;45.31;100617.69;5023278;28;20054;-62
2024/01/05 00:11:07;;;;;;;9.98;8.70;;;;;;;18.97;45.53;100623.78;5039478;28;20061;-60
2024/01/05 00:13:35;;;;;;;8.10;7.35;;;;;;;18.97;45.66;100623.78;5033873;28;20058;-61
2024/01/05 00:16:03;;;;;;;8.57;7.65;;;;;;;18.98;45.72;100624.63;5032195;28;20053;-59
2024/01/05 00:18:30;;;;;;;7.63;6.82;;;;;;;18.97;45.64;100621.09;5029752;28;20049;-58
2024/01/05 00:20:58;;;;;;;7.80;6.68;;;;;;;18.99;45.58;100612.91;5036243;28;20053;-57
2024/01/05 00:23:25;;;;;;;8.40;7.57;;;;;;;18.99;45.48;100629.00;5033787;28;20049;-57
2024/01/05 00:25:54;;;;;;;7.82;7.07;;;;;;;18.99;45.43;100635.19;5032641;28;20109;-56
2024/01/05 00:28:22;;;;;;;7.65;6.53;;;;;;;19.01;45.51;100643.13;5029971;28;20057;-59
2024/01/05 00:30:49;;;;;;;7.50;6.72;;;;;;;18.99;45.66;100643.25;5036187;28;20357;-55
2024/01/05 00:33:17;;;;;;;7.25;6.53;;;;;;;19.01;45.65;100637.78;5033171;28;20053;-55
2024/01/05 00:35:44;;;;;;;8.38;6.97;;;;;;;19.00;45.77;100626.19;5032864;28;20056;-55
2024/01/05 00:38:12;;;;;;;7.15;5.93;;;;;;;19.02;45.81;100643.00;5029816;28;20049;-58
2024/01/05 00:40:39;;;;;;;6.82;6.13;;;;;;;19.03;46.17;100644.69;5041320;28;20414;-59
2024/01/05 00:43:07;;;;;;;8.75;6.45;;;;;;;19.02;46.20;100634.09;5034936;28;20053;-59
2024/01/05 00:45:34;;;;;;;7.72;6.93;;;;;;;18.99;45.95;100639.72;5043658;28;20427;-59
2024/01/05 00:48:02;;;;;;;7.10;6.40;;;;;;;19.00;45.62;100628.03;5030300;28;20054;-55
2024/01/05 00:50:30;;;;;;;7.43;6.40;;;;;;;18.98;45.84;100628.16;5035371;28;20049;-55
2024/01/05 00:52:58;;;;;;;7.65;6.07;;;;;;;18.97;45.97;100631.81;5033073;28;20033;-55
2024/01/05 00:55:25;;;;;;;6.65;5.93;;;;;;;18.96;45.78;100629.28;5031733;28;20487;-55
2024/01/05 00:57:53;;;;;;;7.13;6.38;;;;;;;18.95;45.98;100627.56;5029975;28;20050;-58
2024/01/05 01:00:21;;;;;;;6.82;6.13;;;;;;;18.93;45.89;100625.03;5034488;28;20411;-59
2024/01/05 01:02:49;;;;;;;7.57;6.60;;;;;;;18.94;45.68;100631.25;5032378;28;20056;-58
2024/01/05 01:05:17;;;;;;;8.15;6.88;;;;;;;18.93;45.75;100626.88;5020574;28;20477;-58
2024/01/05 01:07:45;;;;;;;8.07;6.07;;;;;;;18.92;45.81;100627.81;5029463;28;20041;-58
2024/01/05 01:10:13;;;;;;;7.07;5.90;;;;;;;18.92;46.09;100630.50;5038783;28;20041;-58
2024/01/05 01:12:41;;;;;;;6.22;5.63;;;;;;;18.91;46.09;100631.50;5032631;28;20053;-57
2024/01/05 01:15:09;;;;;;;7.07;6.38;;;;;;;18.91;46.11;100643.06;5030977;28;20052;-58
2024/01/05 01:17:36;;;;;;;6.53;5.72;;;;;;;18.90;45.99;100633.34;5029734;28;20045;-57
2024/01/05 01:20:05;;;;;;;6.43;5.75;;;;;;;18.90;45.94;100635.16;5040651;28;20040;-58
2024/01/05 01:22:33;;;;;;;6.53;5.82;;;;;;;18.88;46.08;100631.75;5034606;28;20064;-58
2024/01/05 01:25:00;;;;;;;6.72;6.07;;;;;;;18.89;46.00;100628.13;5033231;28;20046;-58
2024/01/05 01:27:28;;;;;;;6.43;5.82;;;;;;;18.88;46.11;100621.91;5033071;28;20042;-55
2024/01/05 01:29:55;;;;;;;6.47;5.88;;;;;;;18.87;46.10;100624.69;5034507;28;20056;-53
2024/01/05 01:32:22;;;;;;;6.90;5.60;;;;;;;18.87;46.08;100630.91;5038241;28;20415;-55
2024/01/05 01:34:50;;;;;;;6.50;5.90;;;;;;;18.87;46.16;100630.91;5031258;28;20064;-55
2024/01/05 01:37:18;;;;;;;6.68;5.45;;;;;;;18.88;46.15;100635.31;5031486;28;20046;-57
2024/01/05 01:39:45;;;;;;;6.43;5.68;;;;;;;18.87;46.27;100635.44;5042401;28;20063;-58
2024/01/05 01:42:13;;;;;;;6.22;5.63;;;;;;;18.88;46.36;100638.00;5036340;28;20072;-57
2024/01/05 01:44:40;;;;;;;6.55;5.78;;;;;;;18.89;46.27;100628.13;5033932;28;20038;-58
2024/01/05 01:47:08;;;;;;;6.35;5.53;;;;;;;18.88;46.26;100624.59;5033021;28;20057;-55
2024/01/05 01:49:35;;;;;;;7.55;5.72;;;;;;;18.88;46.40;100621.03;5034297;28;20053;-54
2024/01/05 01:52:04;;;;;;;6.57;5.03;;;;;;;18.89;46.08;100622.75;5032333;28;20052;-53
2024/01/05 01:54:33;;;;;;;6.63;5.43;;;;;;;18.88;46.34;100621.03;5030808;28;20057;-54
2024/01/05 01:57:04;;;;;;;6.63;6.00;;;;;;;18.88;46.18;100615.66;5031327;28;20046;-57
2024/01/05 01:59:33;;;;;;;6.25;5.47;;;;;;;18.87;46.29;100614.81;5029302;28;20072;-58
2024/01/05 02:02:00;;;;;;;6.72;5.47;;;;;;;18.88;46.35;100621.03;5031679;28;20050;-58
2024/01/05 02:04:29;;;;;;;6.15;5.55;;;;;;;18.86;46.16;100613.13;5029382;28;20045;-58
2024/01/05 02:06:57;;;;;;;6.55;5.88;;;;;;;18.87;46.34;100609.44;5021447;28;20072;-55
2024/01/05 02:09:25;;;;;;;6.65;5.75;;;;;;;18.87;46.35;100613.97;5032512;28;20049;-55
2024/01/05 02:11:52;;;;;;;6.43;5.82;;;;;;;18.87;46.35;100613.97;5037715;28;20045;-53
2024/01/05 02:14:20;;;;;;;6.30;5.32;;;;;;;18.86;46.44;100613.13;5029247;28;20410;-54
2024/01/05 02:16:48;;;;;;;6.75;5.45;;;;;;;18.86;46.33;100606.91;5033145;28;20042;-53
2024/01/05 02:19:15;;;;;;;6.25;5.65;;;;;;;18.86;46.33;100606.91;5032509;28;20068;-53
2024/01/05 02:21:47;;;;;;;6.45;5.47;;;;;;;18.85;46.41;100603.38;5030606;28;20053;-54
2024/01/05 02:24:15;;;;;;;8.38;5.88;;;;;;;18.84;46.41;100590.97;5028845;28;20511;-54
2024/01/05 02:26:42;;;;;;;6.88;6.18;;;;;;;18.85;46.20;100610.59;5034462;28;20048;-53
2024/01/05 02:29:10;;;;;;;6.50;5.80;;;;;;;18.85;46.41;100610.59;5031707;28;20064;-55
2024/01/05 02:31:37;;;;;;;6.65;5.53;;;;;;;18.85;46.40;100614.13;5036441;28;20054;-55
2024/01/05 02:34:05;;;;;;;6.97;5.80;;;;;;;18.84;46.43;100611.53;5028723;28;20050;-53
2024/01/05 02:36:33;;;;;;;6.53;5.50;;;;;;;18.83;46.59;100605.34;5043271;28;20041;-57
2024/01/05 02:39:00;;;;;;;8.02;5.20;;;;;;;18.84;46.38;100608.88;5035907;28;20053;-58
2024/01/05 02:41:28;;;;;;;5.43;4.90;;;;;;;18.84;46.44;100607.06;5044174;28;20049;-58
2024/01/05 02:43:55;;;;;;;5.60;5.10;;;;;;;18.82;46.35;100609.00;5032538;28;20060;-58
2024/01/05 02:46:23;;;;;;;6.57;5.20;;;;;;;18.82;46.53;100605.47;5034789;28;20064;-56
2024/01/05 02:48:50;;;;;;;6.90;5.63;;;;;;;18.82;46.36;100597.44;5026907;28;20057;-55
2024/01/05 02:51:18;;;;;;;5.47;4.95;;;;;;;18.83;46.46;100596.44;5036184;28;20055;-54
2024/01/05 02:53:45;;;;;;;7.15;6.45;;;;;;;18.82;46.56;100603.66;5032175;28;20060;-54
2024/01/05 02:56:23;;;;;;;6.57;5.88;;;;;;;18.82;46.29;100609.00;5037686;28;20056;-54
2024/01/05 02:58:53;;;;;;;6.93;5.97;;;;;;;18.82;46.34;100600.13;5031159;28;20499;-58
2024/01/05 03:01:20;;;;;;;6.78;5.78;;;;;;;18.81;46.38;100593.91;5027978;28;20108;-60
2024/01/05 03:03:48;;;;;;;6.90;5.80;;;;;;;18.82;46.46;100592.06;5033364;28;20528;-60
2024/01/05 03:06:19;;;;;;;6.38;5.78;;;;;;;18.82;46.36;100584.88;5040762;28;20488;-59
2024/01/05 03:08:47;;;;;;;5.65;5.05;;;;;;;18.81;46.56;100585.03;5033359;28;20487;-59
2024/01/05 03:11:15;;;;;;;6.40;5.80;;;;;;;18.81;46.43;100576.97;5037680;28;20393;-60
2024/01/05 03:13:42;;;;;;;6.53;5.93;;;;;;;18.80;46.44;100572.56;5035634;28;20439;-59
2024/01/05 03:16:10;;;;;;;6.55;5.90;;;;;;;18.80;46.58;100575.25;5037393;28;20049;-57
2024/01/05 03:18:37;;;;;;;6.28;5.55;;;;;;;18.78;46.44;100581.59;5035504;28;20054;-52
2024/01/05 03:21:07;;;;;;;6.70;5.68;;;;;;;18.80;46.49;100572.56;5034591;28;20056;-53
2024/01/05 03:23:34;;;;;;;6.82;5.80;;;;;;;18.79;46.49;100566.38;5035326;28;20057;-54
2024/01/05 03:26:02;;;;;;;6.78;5.93;;;;;;;18.78;46.60;100575.41;5036997;28;20407;-51
2024/01/05 03:28:29;;;;;;;6.82;5.65;;;;;;;18.79;46.44;100566.38;5037643;28;20518;-54
2024/01/05 03:30:57;;;;;;;6.40;5.78;;;;;;;18.79;46.58;100561.00;5038763;28;20057;-54
2024/01/05 03:33:24;;;;;;;6.93;5.88;;;;;;;18.78;46.49;100557.47;5042957;28;20057;-54
2024/01/05 03:35:52;;;;;;;5.88;5.28;;;;;;;18.80;46.36;100562.72;5034254;28;20403;-54
2024/01/05 03:38:19;;;;;;;6.57;5.75;;;;;;;18.80;46.54;100562.72;5047279;28;20399;-58
2024/01/05 03:40:47;;;;;;;6.45;5.82;;;;;;;18.79;46.56;100542.22;5038735;28;20468;-56
2024/01/05 03:43:14;;;;;;;6.93;6.20;;;;;;;18.78;46.61;100543.22;5033909;28;20045;-53
2024/01/05 03:45:42;;;;;;;7.22;5.88;;;;;;;18.80;46.42;100548.44;5029920;28;20483;-54
2024/01/05 03:48:09;;;;;;;6.00;5.40;;;;;;;18.77;46.57;100553.09;5033894;28;20052;-55
2024/01/05 03:50:37;;;;;;;6.43;5.82;;;;;;;18.78;46.66;100562.00;5032722;28;20045;-55
2024/01/05 03:53:04;;;;;;;6.07;5.47;;;;;;;18.78;46.92;100570.03;5033677;28;20054;-55
2024/01/05 03:55:32;;;;;;;6.57;5.82;;;;;;;18.78;46.69;100573.56;5034996;28;20052;-55
2024/01/05 03:58:00;;;;;;;7.05;5.88;;;;;;;18.78;46.85;100549.44;5030666;28;20045;-58
2024/01/05 04:00:27;;;;;;;6.95;6.25;;;;;;;18.78;46.70;100545.91;5038126;28;20045;-59
2024/01/05 04:02:55;;;;;;;6.63;5.90;;;;;;;18.77;46.84;100544.22;5033434;28;20058;-59
2024/01/05 04:05:23;;;;;;;6.60;5.93;;;;;;;18.77;46.78;100545.06;5035174;28;20049;-59
2024/01/05 04:07:50;;;;;;;5.97;5.38;;;;;;;18.77;46.75;100545.06;5025473;28;20472;-59
2024/01/05 04:10:18;;;;;;;6.00;5.40;;;;;;;18.77;46.81;100547.75;5029769;28;20053;-59
2024/01/05 04:12:45;;;;;;;6.22;5.47;;;;;;;18.77;46.70;100533.47;5033299;28;20045;-60
2024/01/05 04:15:13;;;;;;;7.00;5.82;;;;;;;18.77;46.75;100538.84;5034589;28;20041;-59
2024/01/05 04:17:41;;;;;;;6.30;5.68;;;;;;;18.77;46.63;100537.00;5032326;28;20048;-54
2024/01/05 04:20:09;;;;;;;6.78;6.18;;;;;;;18.77;46.73;100537.00;5031640;28;20060;-56
2024/01/05 04:22:37;;;;;;;6.57;5.88;;;;;;;18.75;46.71;100528.25;5033683;28;20054;-54
2024/01/05 04:25:04;;;;;;;7.03;6.28;;;;;;;18.76;46.70;100513.88;5034694;28;20507;-56
2024/01/05 04:27:32;;;;;;;6.53;5.75;;;;;;;18.75;46.88;100498.75;5033191;28;20049;-59
2024/01/05 04:29:59;;;;;;;6.70;5.97;;;;;;;18.76;46.73;100511.19;4945906;28;2484871;-60
2024/01/05 04:32:27;;;;;;;8.30;5.95;;;;;;;18.76;46.80;100510.34;5035526;28;20065;-59
2024/01/05 04:34:55;;;;;;;7.20;6.45;;;;;;;18.75;46.71;100522.88;5035310;28;20076;-58
2024/01/05 04:37:22;;;;;;;7.20;6.03;;;;;;;18.76;46.67;100519.22;5034333;28;20515;-56
2024/01/05 04:39:50;;;;;;;6.32;5.72;;;;;;;18.75;46.83;100511.31;5033653;28;20053;-55
2024/01/05 04:42:17;;;;;;;6.72;6.03;;;;;;;18.76;46.72;100503.13;5034768;28;20149;-56
2024/01/05 04:44:45;;;;;;;7.07;6.20;;;;;;;18.74;46.73;100478.28;5035031;28;20395;-54
2024/01/05 04:47:12;;;;;;;7.22;6.53;;;;;;;18.75;46.77;100498.75;5032792;28;20052;-55
2024/01/05 04:49:40;;;;;;;7.13;6.25;;;;;;;18.74;46.81;100502.41;5032171;28;20435;-55
2024/01/05 04:52:08;;;;;;;7.28;6.00;;;;;;;18.74;46.75;100488.16;5034972;28;20046;-53
2024/01/05 04:54:35;;;;;;;6.50;5.80;;;;;;;18.73;46.68;100495.34;5034380;28;20050;-55
2024/01/05 04:57:03;;;;;;;7.18;6.47;;;;;;;18.73;46.66;100503.41;5034324;28;20076;-55
2024/01/05 04:59:31;;;;;;;7.18;6.07;;;;;;;18.73;46.76;100507.91;5031927;28;20416;-58
2024/01/05 05:01:59;;;;;;;6.28;5.68;;;;;;;18.73;47.03;100503.41;5034580;28;20507;-59
2024/01/05 05:04:26;;;;;;;6.95;6.25;;;;;;;18.71;46.84;100489.28;5033212;28;20499;-59
2024/01/05 05:06:54;;;;;;;7.65;6.82;;;;;;;18.72;46.86;100490.16;5033390;28;20049;-58
2024/01/05 05:09:22;;;;;;;7.78;6.03;;;;;;;18.70;47.00;100489.41;5022226;28;20042;-59
2024/01/05 05:11:49;;;;;;;6.78;6.07;;;;;;;18.70;46.92;100489.41;5035208;28;20046;-59
2024/01/05 05:14:17;;;;;;;7.50;6.78;;;;;;;18.69;47.00;100501.94;5034610;28;20041;-59
2024/01/05 05:16:44;;;;;;;6.90;6.18;;;;;;;18.73;46.79;100495.34;5034393;28;20049;-58
2024/01/05 05:19:12;;;;;;;7.93;6.32;;;;;;;18.73;46.77;100481.94;5032897;28;20041;-59
2024/01/05 05:21:39;;;;;;;6.72;5.88;;;;;;;18.74;46.91;100475.59;5035034;28;20050;-52
2024/01/05 05:24:07;;;;;;;7.15;6.32;;;;;;;18.75;46.84;100471.91;5035810;28;20049;-51
2024/01/05 05:26:34;;;;;;;7.22;5.78;;;;;;;18.76;46.82;100470.13;5033705;28;20049;-58
2024/01/05 05:29:02;;;;;;;6.78;6.15;;;;;;;18.77;46.63;100471.81;5016672;28;20401;-59
2024/01/05 05:31:30;;;;;;;7.18;6.25;;;;;;;18.77;46.69;100482.53;5036199;28;20049;-59
2024/01/05 05:33:57;;;;;;;7.97;6.20;;;;;;;18.76;46.67;100473.63;5034411;28;20385;-59
2024/01/05 05:36:27;;;;;;;6.43;5.78;;;;;;;18.77;46.65;100469.13;5033628;28;20045;-52
2024/01/05 05:38:55;;;;;;;6.85;6.13;;;;;;;18.77;46.71;100464.59;5032652;28;20049;-55
2024/01/05 05:41:23;;;;;;;8.43;7.53;;;;;;;18.77;46.59;100445.00;5035382;28;20483;-56
2024/01/05 05:43:50;;;;;;;8.45;5.93;;;;;;;18.76;46.42;100438.78;5033571;28;20057;-55
2024/01/05 05:46:18;;;;;;;6.68;5.88;;;;;;;18.77;46.54;100445.00;5027001;28;20068;-55
2024/01/05 05:48:46;;;;;;;7.28;6.45;;;;;;;18.76;46.59;100443.31;5031555;28;20480;-52
2024/01/05 05:51:13;;;;;;;6.65;5.97;;;;;;;18.76;46.74;100436.09;5035268;28;20426;-55
2024/01/05 05:53:41;;;;;;;7.97;6.38;;;;;;;18.75;46.60;100450.47;5034038;28;20379;-53
2024/01/05 05:56:09;;;;;;;7.45;6.22;;;;;;;18.75;46.71;100453.16;5033057;28;20072;-53
2024/01/05 05:58:36;;;;;;;7.63;5.88;;;;;;;18.75;46.55;100436.22;5031013;28;20037;-56
2024/01/05 06:01:05;;;;;;;6.70;6.03;;;;;;;18.74;46.64;100440.72;5035662;28;20414;-54
2024/01/05 06:03:32;;;;;;;7.07;6.38;;;;;;;18.75;46.66;100434.38;5031846;28;20484;-54
2024/01/05 06:06:00;;;;;;;8.02;6.22;;;;;;;18.75;46.75;100429.00;5032740;28;20204;-55
2024/01/05 06:08:27;;;;;;;7.78;6.40;;;;;;;18.75;46.76;100433.53;5033146;28;20052;-59
2024/01/05 06:10:55;;;;;;;8.65;6.85;;;;;;;18.74;46.49;100448.78;5028947;28;20041;-59
2024/01/05 06:13:22;;;;;;;7.03;6.32;;;;;;;18.75;46.73;100455.00;5032739;28;20407;-54
2024/01/05 06:15:50;;;;;;;7.03;6.07;;;;;;;18.76;46.64;100462.06;5033367;28;20408;-55
2024/01/05 06:18:17;;;;;;;7.80;6.28;;;;;;;18.75;46.46;100461.19;5031033;28;20484;-54
2024/01/05 06:20:45;;;;;;;7.70;6.88;;;;;;;18.75;46.60;100466.56;5035810;28;20040;-54
2024/01/05 06:23:12;;;;;;;7.32;6.28;;;;;;;18.73;46.61;100463.19;5023200;28;20491;-54
2024/01/05 06:25:43;;;;;;;6.57;5.88;;;;;;;18.71;46.63;100459.78;5033004;28;20056;-55
2024/01/05 06:28:10;;;;;;;7.45;6.38;;;;;;;18.74;46.72;100470.22;5030759;28;20062;-55
2024/01/05 06:30:38;;;;;;;7.25;6.05;;;;;;;18.73;46.54;100467.69;5043391;28;20068;-55
2024/01/05 06:33:07;;;;;;;8.35;6.10;;;;;;;18.73;46.59;100465.88;5033658;28;20053;-55
2024/01/05 06:35:35;;;;;;;7.75;6.28;;;;;;;18.74;46.54;100459.50;5033413;28;20061;-55
2024/01/05 06:38:02;;;;;;;6.75;6.05;;;;;;;18.73;46.72;100447.09;5030454;28;20049;-56
2024/01/05 06:40:30;;;;;;;6.22;5.63;;;;;;;18.72;46.67;100439.19;5040057;28;20053;-56
2024/01/05 06:42:57;;;;;;;6.50;5.78;;;;;;;18.71;46.76;100443.69;5033559;28;20056;-58
2024/01/05 06:45:25;;;;;;;7.15;6.40;;;;;;;18.71;46.73;100442.84;5036020;28;20060;-60
2024/01/05 06:47:52;;;;;;;6.82;6.13;;;;;;;18.70;46.73;100444.69;5031725;28;20049;-59
2024/01/05 06:50:20;;;;;;;6.78;5.75;;;;;;;18.69;46.78;100448.31;5039777;28;20064;-55
2024/01/05 06:52:48;;;;;;;6.78;5.90;;;;;;;18.69;46.69;100456.38;5033982;28;20404;-56
2024/01/05 06:55:15;;;;;;;6.78;5.60;;;;;;;18.69;46.74;100453.69;5032891;28;20056;-56
2024/01/05 06:57:43;;;;;;;8.07;7.03;;;;;;;18.69;46.76;100445.63;5030803;28;20053;-59
2024/01/05 07:00:10;;;;;;;7.70;6.43;;;;;;;18.70;46.79;100433.09;5040453;28;20053;-59
2024/01/05 07:02:38;;;;;;;6.93;6.22;;;;;;;18.69;46.79;100434.91;5032888;28;20052;-60
2024/01/05 07:05:06;;;;;;;7.07;6.38;;;;;;;18.68;46.80;100422.50;5037968;28;20052;-60
2024/01/05 07:07:33;;;;;;;7.70;6.82;;;;;;;18.70;46.69;100425.91;5031637;28;20412;-59
2024/01/05 07:10:01;;;;;;;7.68;6.78;;;;;;;18.70;46.77;100439.31;5032730;28;20041;-59
2024/01/05 07:12:28;;;;;;;8.48;6.18;;;;;;;18.70;46.79;100435.78;5027895;28;20415;-60
2024/01/05 07:14:56;;;;;;;7.65;6.10;;;;;;;18.69;46.85;100426.88;5038849;28;20053;-59
2024/01/05 07:17:23;;;;;;;7.15;6.25;;;;;;;18.69;46.80;100434.91;5032521;28;20385;-58
2024/01/05 07:19:51;;;;;;;7.25;6.47;;;;;;;18.70;46.67;100431.28;5033382;28;20068;-59
2024/01/05 07:22:18;;;;;;;6.53;5.93;;;;;;;18.70;46.67;100439.31;5045208;28;20415;-59
2024/01/05 07:24:48;;;;;;;7.75;6.38;;;;;;;18.71;46.88;100445.53;5036996;28;20385;-59
2024/01/05 07:27:16;;;;;;;7.22;6.50;;;;;;;18.70;46.94;100439.31;5041008;28;20415;-54
2024/01/05 07:29:44;;;;;;;7.65;5.93;;;;;;;18.70;46.81;100451.88;5038601;28;20112;-55
2024/01/05 07:32:11;;;;;;;7.38;5.80;;;;;;;18.69;46.92;100445.63;5036754;28;20056;-55
2024/01/05 07:34:39;;;;;;;6.90;6.20;;;;;;;18.70;46.85;100450.03;5036325;28;20377;-55
2024/01/05 07:37:07;;;;;;;7.43;6.30;;;;;;;18.70;46.78;100463.44;5033734;28;20384;-57
2024/01/05 07:39:34;;;;;;;7.70;6.72;;;;;;;18.71;46.97;100461.59;5047365;28;20049;-59
2024/01/05 07:42:02;;;;;;;6.60;5.95;;;;;;;18.71;46.85;100450.88;5036579;28;20060;-59
2024/01/05 07:44:30;;;;;;;7.32;6.13;;;;;;;18.71;46.92;100448.19;5031576;28;20042;-55
2024/01/05 07:46:58;;;;;;;6.50;5.55;;;;;;;18.70;46.79;100458.09;5035498;28;20049;-56
2024/01/05 07:49:25;;;;;;;6.88;6.28;;;;;;;18.69;46.81;100461.72;5038621;28;20037;-58
2024/01/05 07:51:53;;;;;;;8.45;6.10;;;;;;;18.70;46.92;100462.59;5035705;28;20060;-55
2024/01/05 07:54:21;;;;;;;6.65;5.60;;;;;;;18.69;46.88;100456.38;5035627;28;20041;-53
2024/01/05 07:56:48;;;;;;;7.15;5.47;;;;;;;18.70;46.94;100462.59;5034801;28;20049;-59
2024/01/05 07:59:16;;;;;;;7.13;6.00;;;;;;;18.69;46.85;100453.69;5037430;28;20049;-59
2024/01/05 08:01:43;;;;;;;6.63;5.55;;;;;;;18.69;47.08;100461.72;5035384;28;20045;-59
2024/01/05 08:04:11;;;;;;;7.78;6.15;;;;;;;18.69;47.03;100456.38;5035737;28;20053;-59
2024/01/05 08:06:39;;;;;;;6.50;5.75;;;;;;;18.69;46.88;100448.31;5031606;28;20058;-59
2024/01/05 08:09:08;;;;;;;7.40;6.25;;;;;;;18.69;46.95;100448.31;5043644;28;20037;-55
2024/01/05 08:11:35;;;;;;;7.43;5.47;;;;;;;18.69;46.97;100445.63;5027378;28;20045;-56
2024/01/05 08:14:03;;;;;;;8.02;6.80;;;;;;;18.70;46.91;100446.50;5031830;28;20060;-56
2024/01/05 08:16:30;;;;;;;6.95;6.05;;;;;;;18.68;46.93;100446.63;5034494;28;20050;-58
2024/01/05 08:18:58;;;;;;;7.82;5.95;;;;;;;18.69;47.04;100444.78;5037599;28;20044;-54
2024/01/05 08:21:25;;;;;;;7.00;5.72;;;;;;;18.69;46.86;100456.38;5035864;28;20049;-55
2024/01/05 08:23:53;;;;;;;7.20;6.32;;;;;;;18.69;47.00;100451.00;5035564;28;20526;-57
2024/01/05 08:26:21;;;;;;;7.32;6.55;;;;;;;18.69;47.01;100444.78;5034039;28;20042;-58
2024/01/05 08:28:49;;;;;;;8.40;6.90;;;;;;;18.69;47.09;100436.75;5037693;28;20491;-59
2024/01/05 08:31:17;;;;;;;8.00;7.20;;;;;;;18.68;46.98;100427.00;5035366;28;20495;-59
2024/01/05 08:33:44;;;;;;;6.88;6.18;;;;;;;18.67;47.05;100438.69;5034452;28;20436;-59
2024/01/05 08:36:12;;;;;;;7.00;6.20;;;;;;;18.67;47.09;100444.06;5034707;28;20057;-59
2024/01/05 08:38:43;;;;;;;8.27;6.40;;;;;;;18.67;47.10;100447.59;5037405;28;20407;-55
2024/01/05 08:41:10;;;;;;;7.65;6.60;;;;;;;18.67;47.04;100441.38;5035407;28;20395;-56
2024/01/05 08:43:39;;;;;;;7.72;6.90;;;;;;;18.68;46.92;100429.69;5035646;28;20439;-55
2024/01/05 08:46:06;;;;;;;7.38;6.25;;;;;;;18.68;47.08;100437.75;5034796;28;20404;-54
2024/01/05 08:48:34;;;;;;;7.22;6.53;;;;;;;18.67;47.04;100439.53;5036473;28;20410;-53
2024/01/05 08:51:01;;;;;;;7.88;7.05;;;;;;;18.69;47.02;100442.13;5035276;28;20049;-57
2024/01/05 08:53:29;;;;;;;7.90;6.80;;;;;;;18.68;46.98;100441.28;5034109;28;20049;-55
2024/01/05 08:55:56;;;;;;;7.90;6.90;;;;;;;18.68;47.21;100437.75;5034625;28;20408;-56
2024/01/05 08:58:24;;;;;;;10.45;7.25;;;;;;;18.70;47.12;100447.34;5036309;28;20052;-59
2024/01/05 09:00:51;;;;;;;7.50;6.70;;;;;;;18.70;47.23;100443.84;5042135;28;20045;-55
2024/01/05 09:03:19;;;;;;;15.73;14.05;;;;;;;18.65;46.67;100449.56;5037581;28;20045;-56
2024/01/05 09:05:47;;;;;;;14.35;12.85;;;;;;;18.61;46.33;100448.16;5027556;28;20488;-55
2024/01/05 09:08:14;;;;;;;12.18;10.98;;;;;;;18.62;46.54;100443.63;5036736;28;20506;-57
2024/01/05 09:10:42;;;;;;;12.60;9.10;;;;;;;18.62;46.61;100447.16;5034720;28;20041;-58
2024/01/05 09:13:09;;;;;;;9.25;8.07;;;;;;;18.62;46.93;100447.16;5024095;28;20045;-58
2024/01/05 09:15:37;;;;;;;10.63;8.60;;;;;;;18.63;47.04;100448.84;5040646;28;20054;-57
2024/01/05 09:18:05;;;;;;;10.15;7.68;;;;;;;18.65;47.02;100454.09;5046477;28;20057;-60
2024/01/05 09:20:33;;;;;;;9.73;7.75;;;;;;;18.65;47.20;100454.09;5045142;28;20052;-59
2024/01/05 09:23:00;;;;;;;10.25;7.55;;;;;;;18.67;47.29;100441.38;5048647;28;20049;-59
2024/01/05 09:25:29;;;;;;;8.80;7.53;;;;;;;18.67;47.35;100436.88;5045473;28;20056;-60
2024/01/05 09:28:00;;;;;;;8.70;7.80;;;;;;;18.67;47.37;100427.97;5047844;28;20049;-61
2024/01/05 09:30:28;;;;;;;9.05;7.72;;;;;;;18.68;47.24;100433.22;5048818;28;20056;-60
2024/01/05 09:32:59;;;;;;;8.13;6.80;;;;;;;18.68;47.49;100417.13;5045676;28;20057;-60
2024/01/05 09:35:27;;;;;;;8.10;7.30;;;;;;;18.69;47.70;100421.50;5046625;28;20044;-60
2024/01/05 09:37:54;;;;;;;9.40;7.38;;;;;;;18.71;47.70;100410.66;5049058;28;20391;-60
2024/01/05 09:40:23;;;;;;;9.18;8.20;;;;;;;18.71;47.63;100422.22;5046176;28;20044;-59
2024/01/05 09:42:51;;;;;;;8.68;7.75;;;;;;;18.71;47.76;100408.81;5044159;28;20045;-59
2024/01/05 09:45:22;;;;;;;8.60;7.25;;;;;;;18.72;47.86;100412.38;5034072;28;20483;-59
2024/01/05 09:47:51;;;;;;;9.77;7.93;;;;;;;18.72;47.81;100404.34;5039775;28;20377;-60
2024/01/05 09:50:19;;;;;;;8.82;7.18;;;;;;;18.73;47.86;100406.03;5041812;28;20487;-59
2024/01/05 09:52:46;;;;;;;10.13;7.68;;;;;;;18.74;47.84;100410.41;5041125;28;20064;-59
2024/01/05 09:55:14;;;;;;;9.07;7.45;;;;;;;18.76;47.79;100408.44;5044165;28;20052;-58
2024/01/05 09:57:42;;;;;;;10.98;7.28;;;;;;;18.77;48.11;100410.97;5040573;28;20060;-61
2024/01/05 10:00:14;;;;;;;11.23;8.27;;;;;;;18.76;48.06;100398.56;5032507;28;20052;-61
2024/01/05 10:02:59;;;;;;;9.85;8.40;;;;;;;18.76;47.96;100409.28;5040324;28;20454;-61
2024/01/05 10:05:26;;;;;;;9.75;8.10;;;;;;;18.75;47.87;100398.69;5034002;28;20053;-61
2024/01/05 10:07:54;;;;;;;9.50;7.90;;;;;;;18.74;47.78;100397.84;5038793;28;20062;-62
2024/01/05 10:10:48;;;;;;;11.93;10.23;;;;;;;18.72;47.53;100380.22;5037572;28;20045;-61
2024/01/05 10:13:16;;;;;;;8.68;7.78;;;;;;;18.74;47.55;100380.91;5036265;28;20067;-61
2024/01/05 10:16:00;;;;;;;9.80;8.70;;;;;;;18.75;47.36;100396.84;5029009;28;20384;-55
2024/01/05 10:18:29;;;;;;;20.75;14.52;;;;;;;18.68;47.20;100384.13;5037619;28;20045;-59
2024/01/05 10:21:09;;;;;;;24.58;18.45;;;;;;;18.58;46.55;100377.88;5039549;28;20056;-60
2024/01/05 10:23:43;;;;;;;26.33;20.15;;;;;;;18.44;46.07;100365.72;5037648;28;20053;-59
2024/01/05 10:26:20;;;;;;;19.40;16.92;;;;;;;18.36;46.25;100362.88;5033203;28;20060;-58
2024/01/05 10:28:49;;;;;;;16.70;14.63;;;;;;;18.35;46.12;100361.16;5042231;28;20060;-58
2024/01/05 10:31:17;;;;;;;15.60;13.52;;;;;;;18.37;46.43;100353.84;5036400;28;20048;-58
2024/01/05 10:33:55;;;;;;;14.77;12.90;;;;;;;18.40;46.79;100357.09;5035941;28;20049;-56
2024/01/05 10:36:25;;;;;;;13.30;11.18;;;;;;;18.44;46.86;100360.34;5037400;28;20056;-59
2024/01/05 10:38:56;;;;;;;14.83;11.03;;;;;;;18.46;47.20;100350.34;5026206;28;20053;-61
2024/01/05 10:41:24;;;;;;;13.32;10.90;;;;;;;18.49;47.19;100339.34;5034257;28;20399;-61
2024/01/05 10:43:53;;;;;;;13.10;9.85;;;;;;;18.51;47.07;100342.72;5033667;28;20053;-60
2024/01/05 10:46:21;;;;;;;12.38;10.85;;;;;;;18.52;47.09;100337.25;5037903;28;20045;-58
2024/01/05 10:48:49;;;;;;;17.52;11.85;;;;;;;18.54;47.10;100342.44;5035978;28;20042;-60
2024/01/05 10:51:22;;;;;;;12.32;10.18;;;;;;;18.55;47.15;100333.41;5035187;28;20050;-61
2024/01/05 10:53:51;;;;;;;15.18;9.98;;;;;;;18.56;47.07;100324.41;5034375;28;20060;-61
2024/01/05 10:56:19;;;;;;;11.90;9.73;;;;;;;18.57;47.07;100301.97;5038743;28;20056;-55
2024/01/05 10:58:50;;;;;;;10.77;9.68;;;;;;;18.58;47.06;100306.34;5052739;28;20052;-55
2024/01/05 11:01:21;;;;;;;11.18;9.52;;;;;;;18.58;47.10;100297.44;5053133;28;20089;-56
2024/01/05 11:03:52;;;;;;;11.70;9.35;;;;;;;18.59;47.16;100305.34;5049605;28;20412;-61
2024/01/05 11:06:21;;;;;;;10.63;9.52;;;;;;;18.60;47.10;100300.84;5053157;28;20360;-56
2024/01/05 11:08:51;;;;;;;11.10;9.85;;;;;;;18.61;47.22;100299.84;5053004;28;20049;-60
2024/01/05 11:11:40;;;;;;;11.60;9.75;;;;;;;18.62;47.30;100305.06;5051240;28;20621;-61
2024/01/05 11:14:42;;;;;;;12.00;9.65;;;;;;;18.61;47.08;100289.97;5046482;28;20044;-60
2024/01/05 11:17:36;;;;;;;10.40;9.30;;;;;;;18.62;47.30;100274.72;5025715;28;20064;-59
2024/01/05 11:20:33;;;;;;;12.30;8.80;;;;;;;18.61;46.98;100263.16;5029243;28;20061;-62
2024/01/05 11:23:02;;;;;;;12.23;9.40;;;;;;;18.61;47.11;100265.00;5025911;28;20062;-61
2024/01/05 11:25:29;;;;;;;10.50;8.68;;;;;;;18.60;46.99;100250.75;5027417;28;20058;-55
2024/01/05 11:27:58;;;;;;;12.52;9.13;;;;;;;18.62;47.17;100253.28;5028356;28;20053;-61
2024/01/05 11:30:44;;;;;;;10.40;9.32;;;;;;;18.61;47.09;100241.72;5028864;28;20050;-62